Terminal Aerodrome Forecast
Issued by NWS Indianapolis, IN

Home | Current Version | Previous Version | Text Only | Print | Product List | Glossary On
Versions: 1 2 3 4 5 6 7 8 9 10 11 12 13 14 15 16 17 18 19 20 21 22 23 24 25 26 27 28 29 30 31 32
938
FTUS43 KIND 221120
TAFIND
TAF
KIND 221120Z 2212/2318 VRB03KT P6SM BKN120
     FM221700 05007KT P6SM VCSH OVC040
     FM230300 01010G18KT 3SM BR VCSH OVC010
     FM230600 36011G19KT 4SM BR OVC010=

USA.gov is the U.S. government's official web portal to all federal, state and local government web resources and services.